sensor_id;sensor_type;location;lat;lon;timestamp;pressure;altitude;pressure_sealevel;temperature;humidity
32735;BME280;19112;51.076;3.706;2023-01-27T00:00:24;102480.03;;;7.66;71.13
32735;BME280;19112;51.076;3.706;2023-01-27T00:02:50;102476.75;;;7.68;71.22
32735;BME280;19112;51.076;3.706;2023-01-27T00:05:17;102402.53;;;7.41;70.88
32735;BME280;19112;51.076;3.706;2023-01-27T00:07:43;102372.13;;;7.18;71.17
32735;BME280;19112;51.076;3.706;2023-01-27T00:10:16;102474.41;;;7.84;70.97
32735;BME280;19112;51.076;3.706;2023-01-27T00:12:43;102359.88;;;7.17;71.08
32735;BME280;19112;51.076;3.706;2023-01-27T00:15:30;102412.25;;;7.44;71.48
32735;BME280;19112;51.076;3.706;2023-01-27T00:17:56;102401.28;;;7.36;71.22
32735;BME280;19112;51.076;3.706;2023-01-27T00:20:23;102300.03;;;6.83;71.10
32735;BME280;19112;51.076;3.706;2023-01-27T00:23:15;102400.16;;;7.32;71.35
32735;BME280;19112;51.076;3.706;2023-01-27T00:26:03;102423.41;;;7.41;71.62
32735;BME280;19112;51.076;3.706;2023-01-27T00:28:35;102480.22;;;7.80;72.32
32735;BME280;19112;51.076;3.706;2023-01-27T00:31:01;102255.75;;;6.37;72.03
32735;BME280;19112;51.076;3.706;2023-01-27T00:33:28;102401.00;;;7.20;72.75
32735;BME280;19112;51.076;3.706;2023-01-27T00:36:03;102340.75;;;6.81;72.98
32735;BME280;19112;51.076;3.706;2023-01-27T00:38:33;102095.59;;;5.49;72.81
32735;BME280;19112;51.076;3.706;2023-01-27T00:41:00;102464.25;;;7.64;73.50
32735;BME280;19112;51.076;3.706;2023-01-27T00:43:46;102110.28;;;5.72;72.92
32735;BME280;19112;51.076;3.706;2023-01-27T00:46:13;102431.69;;;7.47;73.02
32735;BME280;19112;51.076;3.706;2023-01-27T00:48:39;102354.69;;;7.05;72.87
32735;BME280;19112;51.076;3.706;2023-01-27T00:51:05;102259.94;;;6.46;72.66
32735;BME280;19112;51.076;3.706;2023-01-27T00:53:31;102333.97;;;6.83;73.06
32735;BME280;19112;51.076;3.706;2023-01-27T00:55:57;102289.41;;;6.69;73.15
32735;BME280;19112;51.076;3.706;2023-01-27T00:58:27;102392.88;;;7.28;72.76
32735;BME280;19112;51.076;3.706;2023-01-27T01:00:54;102462.63;;;7.66;72.61
32735;BME280;19112;51.076;3.706;2023-01-27T01:03:21;102419.91;;;7.41;72.71
32735;BME280;19112;51.076;3.706;2023-01-27T01:05:48;102460.34;;;7.71;72.95
32735;BME280;19112;51.076;3.706;2023-01-27T01:08:14;102428.03;;;7.57;72.92
32735;BME280;19112;51.076;3.706;2023-01-27T01:10:40;102453.09;;;7.67;72.62
32735;BME280;19112;51.076;3.706;2023-01-27T01:13:06;102386.09;;;7.30;72.77
32735;BME280;19112;51.076;3.706;2023-01-27T01:15:37;102459.44;;;7.70;72.93
32735;BME280;19112;51.076;3.706;2023-01-27T01:18:04;102409.50;;;7.54;72.43
32735;BME280;19112;51.076;3.706;2023-01-27T01:20:32;102451.44;;;7.80;72.18
32735;BME280;19112;51.076;3.706;2023-01-27T01:23:00;102450.97;;;7.86;72.29
32735;BME280;19112;51.076;3.706;2023-01-27T01:25:25;102422.66;;;7.67;71.94
32735;BME280;19112;51.076;3.706;2023-01-27T01:27:51;102375.50;;;7.41;72.54
32735;BME280;19112;51.076;3.706;2023-01-27T01:30:17;102383.81;;;7.35;72.44
32735;BME280;19112;51.076;3.706;2023-01-27T01:32:43;102130.97;;;6.06;72.25
32735;BME280;19112;51.076;3.706;2023-01-27T01:35:09;102336.66;;;6.97;72.06
32735;BME280;19112;51.076;3.706;2023-01-27T01:37:34;102285.94;;;6.81;72.12
32735;BME280;19112;51.076;3.706;2023-01-27T01:40:00;102439.25;;;7.68;72.78
32735;BME280;19112;51.076;3.706;2023-01-27T01:42:26;102418.81;;;7.50;72.96
32735;BME280;19112;51.076;3.706;2023-01-27T01:48:16;102440.81;;;7.66;72.71
32735;BME280;19112;51.076;3.706;2023-01-27T01:50:47;102354.88;;;7.20;72.34
32735;BME280;19112;51.076;3.706;2023-01-27T01:53:15;102143.00;;;6.04;72.44
32735;BME280;19112;51.076;3.706;2023-01-27T01:55:42;102423.81;;;7.59;72.81
32735;BME280;19112;51.076;3.706;2023-01-27T01:58:09;102436.50;;;7.66;72.71
32735;BME280;19112;51.076;3.706;2023-01-27T02:00:36;102170.06;;;6.29;72.39
32735;BME280;19112;51.076;3.706;2023-01-27T02:03:02;102430.75;;;7.83;72.55
32735;BME280;19112;51.076;3.706;2023-01-27T02:05:35;102453.59;;;7.86;72.59
32735;BME280;19112;51.076;3.706;2023-01-27T02:08:16;102281.25;;;7.01;72.76
32735;BME280;19112;51.076;3.706;2023-01-27T02:10:45;102393.81;;;7.54;72.65
32735;BME280;19112;51.076;3.706;2023-01-27T02:13:11;102355.06;;;7.35;72.81
32735;BME280;19112;51.076;3.706;2023-01-27T02:15:38;102391.78;;;7.50;73.16
32735;BME280;19112;51.076;3.706;2023-01-27T02:18:05;102304.50;;;7.09;73.15
32735;BME280;19112;51.076;3.706;2023-01-27T02:20:47;102253.72;;;6.81;73.28
32735;BME280;19112;51.076;3.706;2023-01-27T02:23:54;102367.47;;;7.51;73.86
32735;BME280;19112;51.076;3.706;2023-01-27T02:26:37;102398.47;;;7.58;74.41
32735;BME280;19112;51.076;3.706;2023-01-27T02:29:09;102026.97;;;5.49;74.60
32735;BME280;19112;51.076;3.706;2023-01-27T02:31:36;102427.88;;;7.67;75.50
32735;BME280;19112;51.076;3.706;2023-01-27T02:34:17;102388.22;;;7.36;75.52
32735;BME280;19112;51.076;3.706;2023-01-27T02:36:59;102343.78;;;7.11;75.91
32735;BME280;19112;51.076;3.706;2023-01-27T02:39:38;102437.31;;;7.65;76.20
32735;BME280;19112;51.076;3.706;2023-01-27T02:42:06;102434.22;;;7.46;76.42
32735;BME280;19112;51.076;3.706;2023-01-27T02:44:34;102189.13;;;6.28;76.03
32735;BME280;19112;51.076;3.706;2023-01-27T02:47:00;102439.59;;;7.60;76.23
32735;BME280;19112;51.076;3.706;2023-01-27T02:49:25;102438.09;;;7.64;76.96
32735;BME280;19112;51.076;3.706;2023-01-27T02:51:51;102364.72;;;7.24;76.75
32735;BME280;19112;51.076;3.706;2023-01-27T02:54:17;102224.34;;;6.47;76.42
32735;BME280;19112;51.076;3.706;2023-01-27T02:56:43;102354.66;;;7.17;76.81
32735;BME280;19112;51.076;3.706;2023-01-27T02:59:08;102363.72;;;7.22;77.00
32735;BME280;19112;51.076;3.706;2023-01-27T03:01:34;102358.41;;;7.21;76.65
32735;BME280;19112;51.076;3.706;2023-01-27T03:04:00;102437.84;;;7.73;76.80
32735;BME280;19112;51.076;3.706;2023-01-27T03:06:26;102445.81;;;7.74;76.74
32735;BME280;19112;51.076;3.706;2023-01-27T03:08:52;102296.44;;;7.06;76.19
32735;BME280;19112;51.076;3.706;2023-01-27T03:11:18;102405.84;;;7.64;76.55
32735;BME280;19112;51.076;3.706;2023-01-27T03:14:06;102380.91;;;7.44;75.93
32735;BME280;19112;51.076;3.706;2023-01-27T03:16:32;102406.09;;;7.55;75.83
32735;BME280;19112;51.076;3.706;2023-01-27T03:19:16;102442.69;;;7.80;76.58
32735;BME280;19112;51.076;3.706;2023-01-27T03:21:42;102359.78;;;7.16;75.69
32735;BME280;19112;51.076;3.706;2023-01-27T03:24:10;102055.16;;;5.55;76.09
32735;BME280;19112;51.076;3.706;2023-01-27T03:26:36;102385.75;;;7.51;75.85
32735;BME280;19112;51.076;3.706;2023-01-27T03:29:03;102387.31;;;7.60;75.64
32735;BME280;19112;51.076;3.706;2023-01-27T03:32:04;102131.66;;;6.15;74.99
32735;BME280;19112;51.076;3.706;2023-01-27T03:34:30;102426.91;;;7.78;75.30
32735;BME280;19112;51.076;3.706;2023-01-27T03:36:56;102267.91;;;6.85;75.60
32735;BME280;19112;51.076;3.706;2023-01-27T03:39:40;102428.19;;;7.72;75.62
32735;BME280;19112;51.076;3.706;2023-01-27T03:42:24;102433.31;;;7.70;75.28
32735;BME280;19112;51.076;3.706;2023-01-27T03:45:09;102399.97;;;7.54;75.14
32735;BME280;19112;51.076;3.706;2023-01-27T03:47:54;102385.47;;;7.34;75.16
32735;BME280;19112;51.076;3.706;2023-01-27T03:50:19;102335.97;;;6.99;75.16
32735;BME280;19112;51.076;3.706;2023-01-27T03:52:46;102321.13;;;6.98;75.23
32735;BME280;19112;51.076;3.706;2023-01-27T03:55:31;102440.34;;;7.71;75.42
32735;BME280;19112;51.076;3.706;2023-01-27T03:57:57;102333.91;;;7.07;75.59
32735;BME280;19112;51.076;3.706;2023-01-27T04:00:39;102225.78;;;6.55;75.08
32735;BME280;19112;51.076;3.706;2023-01-27T04:03:05;102375.34;;;7.39;75.57
32735;BME280;19112;51.076;3.706;2023-01-27T04:05:49;102290.13;;;6.91;75.25
32735;BME280;19112;51.076;3.706;2023-01-27T04:08:33;102438.28;;;7.79;74.90
32735;BME280;19112;51.076;3.706;2023-01-27T04:11:03;102412.25;;;7.44;75.38
32735;BME280;19112;51.076;3.706;2023-01-27T04:13:48;102243.13;;;6.54;75.03
32735;BME280;19112;51.076;3.706;2023-01-27T04:16:15;102448.38;;;7.49;75.79
32735;BME280;19112;51.076;3.706;2023-01-27T04:18:42;102416.19;;;7.25;75.60
32735;BME280;19112;51.076;3.706;2023-01-27T04:21:08;102463.63;;;7.43;75.33
32735;BME280;19112;51.076;3.706;2023-01-27T04:23:34;102460.78;;;7.40;75.51
32735;BME280;19112;51.076;3.706;2023-01-27T04:25:59;102323.75;;;6.75;74.85
32735;BME280;19112;51.076;3.706;2023-01-27T04:28:26;102431.53;;;7.21;75.22
32735;BME280;19112;51.076;3.706;2023-01-27T04:30:52;102461.97;;;7.20;75.25
32735;BME280;19112;51.076;3.706;2023-01-27T04:33:17;102424.28;;;6.81;75.14
32735;BME280;19112;51.076;3.706;2023-01-27T04:35:43;102322.88;;;6.27;75.42
32735;BME280;19112;51.076;3.706;2023-01-27T04:38:11;102317.13;;;6.32;75.45
32735;BME280;19112;51.076;3.706;2023-01-27T04:40:36;102472.50;;;7.33;75.13
32735;BME280;19112;51.076;3.706;2023-01-27T04:43:02;102463.91;;;7.11;75.04
32735;BME280;19112;51.076;3.706;2023-01-27T04:45:28;102398.56;;;6.63;74.90
32735;BME280;19112;51.076;3.706;2023-01-27T04:47:54;102332.31;;;6.25;75.06
32735;BME280;19112;51.076;3.706;2023-01-27T04:50:19;102473.88;;;6.81;75.41
32735;BME280;19112;51.076;3.706;2023-01-27T04:52:45;102469.72;;;6.83;75.53
32735;BME280;19112;51.076;3.706;2023-01-27T04:55:11;102495.25;;;6.88;75.82
32735;BME280;19112;51.076;3.706;2023-01-27T04:57:37;102439.97;;;6.70;75.46
32735;BME280;19112;51.076;3.706;2023-01-27T05:00:04;102434.06;;;6.72;75.03
32735;BME280;19112;51.076;3.706;2023-01-27T05:02:31;102154.53;;;5.25;74.26
32735;BME280;19112;51.076;3.706;2023-01-27T05:04:57;102309.59;;;6.01;74.40
32735;BME280;19112;51.076;3.706;2023-01-27T05:07:23;101792.97;;;3.07;73.95
32735;BME280;19112;51.076;3.706;2023-01-27T05:09:48;102441.22;;;6.75;74.01
32735;BME280;19112;51.076;3.706;2023-01-27T05:12:14;102111.91;;;4.90;74.14
32735;BME280;19112;51.076;3.706;2023-01-27T05:14:40;102384.03;;;6.54;73.88
32735;BME280;19112;51.076;3.706;2023-01-27T05:17:06;102365.31;;;6.37;73.71
32735;BME280;19112;51.076;3.706;2023-01-27T05:19:32;102488.53;;;6.91;73.21
32735;BME280;19112;51.076;3.706;2023-01-27T05:21:58;102426.69;;;6.67;73.35
32735;BME280;19112;51.076;3.706;2023-01-27T05:24:23;102400.81;;;6.35;73.48
32735;BME280;19112;51.076;3.706;2023-01-27T05:26:49;102437.00;;;6.53;74.43
32735;BME280;19112;51.076;3.706;2023-01-27T05:29:15;102314.59;;;5.98;74.14
32735;BME280;19112;51.076;3.706;2023-01-27T05:31:41;102487.97;;;6.95;74.00
32735;BME280;19112;51.076;3.706;2023-01-27T05:34:08;102491.28;;;6.93;73.50
32735;BME280;19112;51.076;3.706;2023-01-27T05:36:34;102465.59;;;6.64;73.70
32735;BME280;19112;51.076;3.706;2023-01-27T05:38:59;102419.06;;;6.35;73.35
32735;BME280;19112;51.076;3.706;2023-01-27T05:41:28;102491.38;;;6.82;73.43
32735;BME280;19112;51.076;3.706;2023-01-27T05:43:59;102501.59;;;6.79;73.25
32735;BME280;19112;51.076;3.706;2023-01-27T05:46:27;102367.28;;;5.94;73.34
32735;BME280;19112;51.076;3.706;2023-01-27T05:48:58;102492.94;;;6.69;74.18
32735;BME280;19112;51.076;3.706;2023-01-27T05:51:28;102500.94;;;6.82;73.85
32735;BME280;19112;51.076;3.706;2023-01-27T05:53:54;102423.03;;;6.29;74.17
32735;BME280;19112;51.076;3.706;2023-01-27T05:56:21;102341.63;;;5.88;74.17
32735;BME280;19112;51.076;3.706;2023-01-27T05:58:48;102429.25;;;6.32;73.55
32735;BME280;19112;51.076;3.706;2023-01-27T06:01:23;102363.41;;;5.89;73.81
32735;BME280;19112;51.076;3.706;2023-01-27T06:03:50;102400.50;;;5.96;74.12
32735;BME280;19112;51.076;3.706;2023-01-27T06:06:19;102538.56;;;6.62;74.25
32735;BME280;19112;51.076;3.706;2023-01-27T06:08:46;102440.00;;;6.13;73.93
32735;BME280;19112;51.076;3.706;2023-01-27T06:11:13;102441.97;;;5.93;74.47
32735;BME280;19112;51.076;3.706;2023-01-27T06:13:39;102326.66;;;5.40;73.89
32735;BME280;19112;51.076;3.706;2023-01-27T06:16:11;102374.63;;;5.54;73.75
32735;BME280;19112;51.076;3.706;2023-01-27T06:18:38;102511.38;;;6.37;73.79
32735;BME280;19112;51.076;3.706;2023-01-27T06:21:07;102220.66;;;4.94;73.69
32735;BME280;19112;51.076;3.706;2023-01-27T06:23:34;102560.78;;;6.57;73.61
32735;BME280;19112;51.076;3.706;2023-01-27T06:26:03;102277.78;;;4.92;73.29
32735;BME280;19112;51.076;3.706;2023-01-27T06:28:29;102407.38;;;5.62;73.71
32735;BME280;19112;51.076;3.706;2023-01-27T06:31:03;102431.22;;;5.78;73.95
32735;BME280;19112;51.076;3.706;2023-01-27T06:33:29;102465.22;;;5.80;73.87
32735;BME280;19112;51.076;3.706;2023-01-27T06:36:05;102263.13;;;4.61;74.24
32735;BME280;19112;51.076;3.706;2023-01-27T06:38:32;102438.00;;;5.65;74.54
32735;BME280;19112;51.076;3.706;2023-01-27T06:40:59;102421.66;;;5.67;74.42
32735;BME280;19112;51.076;3.706;2023-01-27T06:43:25;102397.38;;;5.57;74.27
32735;BME280;19112;51.076;3.706;2023-01-27T06:45:51;102286.25;;;4.90;74.07
32735;BME280;19112;51.076;3.706;2023-01-27T06:48:18;102521.38;;;6.09;74.98
32735;BME280;19112;51.076;3.706;2023-01-27T06:50:44;102554.47;;;6.32;75.09
32735;BME280;19112;51.076;3.706;2023-01-27T06:53:10;102468.88;;;5.60;75.10
32735;BME280;19112;51.076;3.706;2023-01-27T06:55:36;102482.81;;;6.04;75.08
32735;BME280;19112;51.076;3.706;2023-01-27T06:58:07;102227.19;;;4.45;75.05
32735;BME280;19112;51.076;3.706;2023-01-27T07:00:34;102468.03;;;5.93;74.64
32735;BME280;19112;51.076;3.706;2023-01-27T07:03:01;102575.53;;;6.56;74.72
32735;BME280;19112;51.076;3.706;2023-01-27T07:05:27;102589.69;;;6.48;74.51
32735;BME280;19112;51.076;3.706;2023-01-27T07:07:53;102541.38;;;6.20;74.99
32735;BME280;19112;51.076;3.706;2023-01-27T07:10:19;102438.38;;;5.59;74.50
32735;BME280;19112;51.076;3.706;2023-01-27T07:12:45;102519.50;;;5.96;74.64
32735;BME280;19112;51.076;3.706;2023-01-27T07:15:11;102605.25;;;6.25;74.93
32735;BME280;19112;51.076;3.706;2023-01-27T07:17:37;102558.44;;;6.04;75.08
32735;BME280;19112;51.076;3.706;2023-01-27T07:20:04;102534.00;;;5.92;75.27
32735;BME280;19112;51.076;3.706;2023-01-27T07:22:31;102563.16;;;6.20;74.96
32735;BME280;19112;51.076;3.706;2023-01-27T07:24:57;102520.31;;;5.85;74.75
32735;BME280;19112;51.076;3.706;2023-01-27T07:27:23;102491.16;;;5.57;75.05
32735;BME280;19112;51.076;3.706;2023-01-27T07:29:50;102555.88;;;5.94;75.58
32735;BME280;19112;51.076;3.706;2023-01-27T07:32:16;102536.75;;;5.84;75.49
32735;BME280;19112;51.076;3.706;2023-01-27T07:34:42;102547.63;;;6.00;75.23
32735;BME280;19112;51.076;3.706;2023-01-27T07:37:08;102490.00;;;5.75;74.64
32735;BME280;19112;51.076;3.706;2023-01-27T07:39:36;102469.66;;;5.59;74.48
32735;BME280;19112;51.076;3.706;2023-01-27T07:42:03;102623.28;;;6.34;74.07
32735;BME280;19112;51.076;3.706;2023-01-27T07:44:29;102557.63;;;6.06;74.54
32735;BME280;19112;51.076;3.706;2023-01-27T07:46:57;102632.94;;;6.56;73.85
32735;BME280;19112;51.076;3.706;2023-01-27T07:49:23;102558.75;;;5.97;73.96
32735;BME280;19112;51.076;3.706;2023-01-27T07:51:49;102501.16;;;5.62;73.61
32735;BME280;19112;51.076;3.706;2023-01-27T07:54:16;102597.41;;;6.25;73.83
32735;BME280;19112;51.076;3.706;2023-01-27T07:56:42;102499.78;;;5.56;73.50
32735;BME280;19112;51.076;3.706;2023-01-27T07:59:09;102394.72;;;5.01;73.59
32735;BME280;19112;51.076;3.706;2023-01-27T08:01:36;102574.88;;;6.03;73.34
32735;BME280;19112;51.076;3.706;2023-01-27T08:04:02;102566.94;;;6.02;73.10
32735;BME280;19112;51.076;3.706;2023-01-27T08:06:28;102583.47;;;6.02;73.12
32735;BME280;19112;51.076;3.706;2023-01-27T08:08:54;102605.72;;;6.09;73.06
32735;BME280;19112;51.076;3.706;2023-01-27T08:11:20;102513.66;;;5.66;72.93
32735;BME280;19112;51.076;3.706;2023-01-27T08:13:46;102526.78;;;5.68;72.76
32735;BME280;19112;51.076;3.706;2023-01-27T08:16:14;102601.78;;;6.14;73.22
32735;BME280;19112;51.076;3.706;2023-01-27T08:18:40;102619.44;;;6.28;72.50
32735;BME280;19112;51.076;3.706;2023-01-27T08:21:09;102567.00;;;5.92;72.81
32735;BME280;19112;51.076;3.706;2023-01-27T08:23:35;102579.13;;;5.91;73.14
32735;BME280;19112;51.076;3.706;2023-01-27T08:26:04;102565.19;;;5.81;73.10
32735;BME280;19112;51.076;3.706;2023-01-27T08:28:32;102612.91;;;6.01;72.63
32735;BME280;19112;51.076;3.706;2023-01-27T08:31:09;102534.56;;;5.56;72.93
32735;BME280;19112;51.076;3.706;2023-01-27T08:33:37;102442.09;;;4.97;72.78
32735;BME280;19112;51.076;3.706;2023-01-27T08:36:09;102635.78;;;6.16;72.78
32735;BME280;19112;51.076;3.706;2023-01-27T08:38:36;102657.34;;;6.35;72.89
32735;BME280;19112;51.076;3.706;2023-01-27T08:41:08;102566.22;;;5.83;72.71
32735;BME280;19112;51.076;3.706;2023-01-27T08:43:35;102421.28;;;4.97;72.41
32735;BME280;19112;51.076;3.706;2023-01-27T08:46:01;102577.53;;;5.93;72.19
32735;BME280;19112;51.076;3.706;2023-01-27T08:48:27;102582.97;;;5.96;72.61
32735;BME280;19112;51.076;3.706;2023-01-27T08:50:54;102578.13;;;6.01;71.85
32735;BME280;19112;51.076;3.706;2023-01-27T08:53:22;102481.25;;;5.31;71.56
32735;BME280;19112;51.076;3.706;2023-01-27T08:55:49;102528.63;;;5.69;71.69
32735;BME280;19112;51.076;3.706;2023-01-27T08:58:16;102645.84;;;6.33;71.40
32735;BME280;19112;51.076;3.706;2023-01-27T09:00:42;102643.69;;;6.27;71.88
32735;BME280;19112;51.076;3.706;2023-01-27T09:03:08;102690.34;;;6.56;71.52
32735;BME280;19112;51.076;3.706;2023-01-27T09:05:35;102599.13;;;6.02;71.52
32735;BME280;19112;51.076;3.706;2023-01-27T09:08:02;102681.47;;;6.54;71.54
32735;BME280;19112;51.076;3.706;2023-01-27T09:10:28;102597.66;;;6.06;71.28
32735;BME280;19112;51.076;3.706;2023-01-27T09:12:54;102539.13;;;5.81;71.18
32735;BME280;19112;51.076;3.706;2023-01-27T09:15:20;102586.03;;;5.81;70.57
32735;BME280;19112;51.076;3.706;2023-01-27T09:17:46;102530.16;;;5.77;71.34
32735;BME280;19112;51.076;3.706;2023-01-27T09:20:12;102499.88;;;5.57;71.08
32735;BME280;19112;51.076;3.706;2023-01-27T09:22:41;102697.09;;;6.76;71.35
32735;BME280;19112;51.076;3.706;2023-01-27T09:25:12;102701.50;;;6.88;71.13
32735;BME280;19112;51.076;3.706;2023-01-27T09:27:39;102696.19;;;6.98;70.67
32735;BME280;19112;51.076;3.706;2023-01-27T09:30:06;102555.69;;;6.25;70.47
32735;BME280;19112;51.076;3.706;2023-01-27T09:32:32;102645.59;;;6.74;69.44
32735;BME280;19112;51.076;3.706;2023-01-27T09:34:57;102706.44;;;7.06;70.13
32735;BME280;19112;51.076;3.706;2023-01-27T09:37:23;102668.66;;;6.79;69.45
32735;BME280;19112;51.076;3.706;2023-01-27T09:39:55;102680.72;;;6.89;69.48
32735;BME280;19112;51.076;3.706;2023-01-27T09:46:21;102698.56;;;6.95;69.54
32735;BME280;19112;51.076;3.706;2023-01-27T09:58:12;102627.91;;;6.81;69.16
32735;BME280;19112;51.076;3.706;2023-01-27T10:03:59;102602.03;;;6.73;68.54
32735;BME280;19112;51.076;3.706;2023-01-27T10:07:08;102694.78;;;7.25;68.05
32735;BME280;19112;51.076;3.706;2023-01-27T10:15:31;102655.78;;;6.93;68.08
32735;BME280;19112;51.076;3.706;2023-01-27T10:25:01;102707.59;;;7.10;67.62
32735;BME280;19112;51.076;3.706;2023-01-27T10:27:35;102587.47;;;6.31;67.72
32735;BME280;19112;51.076;3.706;2023-01-27T10:30:34;102676.88;;;6.96;67.79
32735;BME280;19112;51.076;3.706;2023-01-27T10:33:21;102705.34;;;7.26;67.41
32735;BME280;19112;51.076;3.706;2023-01-27T10:35:59;102701.69;;;7.24;66.88
32735;BME280;19112;51.076;3.706;2023-01-27T10:49:51;102606.09;;;7.38;64.97
32735;BME280;19112;51.076;3.706;2023-01-27T10:52:28;102619.69;;;7.22;64.48
32735;BME280;19112;51.076;3.706;2023-01-27T10:57:55;102518.81;;;6.66;64.82
32735;BME280;19112;51.076;3.706;2023-01-27T11:00:33;102699.69;;;7.55;63.90
32735;BME280;19112;51.076;3.706;2023-01-27T11:03:32;102685.88;;;7.56;64.67
32735;BME280;19112;51.076;3.706;2023-01-27T11:06:07;102583.22;;;6.89;64.46
32735;BME280;19112;51.076;3.706;2023-01-27T11:08:39;102481.44;;;6.43;64.15
32735;BME280;19112;51.076;3.706;2023-01-27T11:11:08;102688.78;;;7.61;63.78
32735;BME280;19112;51.076;3.706;2023-01-27T11:14:29;102689.28;;;7.79;64.11
32735;BME280;19112;51.076;3.706;2023-01-27T11:17:11;102686.41;;;7.87;62.86
32735;BME280;19112;51.076;3.706;2023-01-27T11:20:03;102692.13;;;7.94;63.42
32735;BME280;19112;51.076;3.706;2023-01-27T11:23:23;102327.69;;;5.76;61.71
32735;BME280;19112;51.076;3.706;2023-01-27T11:26:04;102692.44;;;7.86;62.55
32735;BME280;19112;51.076;3.706;2023-01-27T11:37:31;102381.31;;;6.29;62.13
32735;BME280;19112;51.076;3.706;2023-01-27T11:39:58;102677.66;;;7.87;62.75
32735;BME280;19112;51.076;3.706;2023-01-27T11:42:32;102601.09;;;7.41;63.49
32735;BME280;19112;51.076;3.706;2023-01-27T11:45:00;102677.66;;;7.75;63.47
32735;BME280;19112;51.076;3.706;2023-01-27T11:47:35;102673.34;;;7.76;64.48
32735;BME280;19112;51.076;3.706;2023-01-27T11:50:04;102678.22;;;7.71;64.61
32735;BME280;19112;51.076;3.706;2023-01-27T11:52:31;102604.16;;;7.35;64.50
32735;BME280;19112;51.076;3.706;2023-01-27T11:55:14;102651.09;;;7.57;63.87
32735;BME280;19112;51.076;3.706;2023-01-27T11:57:50;102506.72;;;6.78;64.15
32735;BME280;19112;51.076;3.706;2023-01-27T12:00:31;102668.69;;;7.60;63.91
32735;BME280;19112;51.076;3.706;2023-01-27T12:03:27;102529.09;;;6.98;63.69
32735;BME280;19112;51.076;3.706;2023-01-27T12:06:00;101706.19;;;2.26;63.53
32735;BME280;19112;51.076;3.706;2023-01-27T12:08:40;102657.66;;;7.64;64.54
32735;BME280;19112;51.076;3.706;2023-01-27T12:11:25;102667.56;;;7.68;64.55
32735;BME280;19112;51.076;3.706;2023-01-27T12:14:03;102660.28;;;7.64;63.37
32735;BME280;19112;51.076;3.706;2023-01-27T12:19:04;102589.28;;;7.46;63.53
32735;BME280;19112;51.076;3.706;2023-01-27T12:21:45;102658.69;;;7.66;63.93
32735;BME280;19112;51.076;3.706;2023-01-27T12:24:27;102541.09;;;6.84;63.72
32735;BME280;19112;51.076;3.706;2023-01-27T12:26:55;102653.91;;;7.60;64.10
32735;BME280;19112;51.076;3.706;2023-01-27T12:29:38;102652.19;;;7.61;64.04
32735;BME280;19112;51.076;3.706;2023-01-27T12:32:21;102622.66;;;7.39;64.57
32735;BME280;19112;51.076;3.706;2023-01-27T12:34:52;102651.44;;;7.62;64.09
32735;BME280;19112;51.076;3.706;2023-01-27T12:37:28;102606.97;;;7.50;63.96
32735;BME280;19112;51.076;3.706;2023-01-27T12:40:03;102521.56;;;7.02;64.33
32735;BME280;19112;51.076;3.706;2023-01-27T12:42:49;102565.41;;;7.42;63.94
32735;BME280;19112;51.076;3.706;2023-01-27T12:45:32;102582.56;;;7.38;63.52
32735;BME280;19112;51.076;3.706;2023-01-27T12:48:16;102597.91;;;7.33;63.39
32735;BME280;19112;51.076;3.706;2023-01-27T12:53:20;102589.94;;;7.08;63.43
32735;BME280;19112;51.076;3.706;2023-01-27T12:56:08;102566.31;;;6.95;64.39
32735;BME280;19112;51.076;3.706;2023-01-27T13:01:23;102650.50;;;7.26;63.98
32735;BME280;19112;51.076;3.706;2023-01-27T13:04:30;102513.78;;;6.45;64.14
32735;BME280;19112;51.076;3.706;2023-01-27T13:09:38;102594.03;;;7.05;64.53
32735;BME280;19112;51.076;3.706;2023-01-27T13:12:24;102428.84;;;5.92;64.11
32735;BME280;19112;51.076;3.706;2023-01-27T13:14:59;102477.72;;;6.06;64.20
32735;BME280;19112;51.076;3.706;2023-01-27T13:17:43;102404.34;;;5.68;64.10
32735;BME280;19112;51.076;3.706;2023-01-27T13:20:37;102486.25;;;6.15;64.17
32735;BME280;19112;51.076;3.706;2023-01-27T13:23:17;102638.41;;;7.05;63.95
32735;BME280;19112;51.076;3.706;2023-01-27T13:28:51;102640.31;;;6.96;64.42
32735;BME280;19112;51.076;3.706;2023-01-27T13:32:10;102635.13;;;7.07;64.35
32735;BME280;19112;51.076;3.706;2023-01-27T13:37:37;102574.09;;;6.72;64.32
32735;BME280;19112;51.076;3.706;2023-01-27T13:40:27;102535.78;;;6.49;64.50
32735;BME280;19112;51.076;3.706;2023-01-27T13:48:37;102469.31;;;6.44;64.83
32735;BME280;19112;51.076;3.706;2023-01-27T13:51:12;102596.97;;;6.98;64.43
32735;BME280;19112;51.076;3.706;2023-01-27T13:53:39;102646.97;;;7.14;64.46
32735;BME280;19112;51.076;3.706;2023-01-27T13:59:26;102564.63;;;6.50;65.35
32735;BME280;19112;51.076;3.706;2023-01-27T14:16:55;102570.25;;;6.78;64.08
32735;BME280;19112;51.076;3.706;2023-01-27T14:22:13;102621.69;;;7.03;64.44
32735;BME280;19112;51.076;3.706;2023-01-27T14:30:56;102654.09;;;7.05;64.56
32735;BME280;19112;51.076;3.706;2023-01-27T14:33:56;102615.66;;;6.92;64.54
32735;BME280;19112;51.076;3.706;2023-01-27T14:43:03;102633.63;;;6.99;65.52
32735;BME280;19112;51.076;3.706;2023-01-27T14:45:38;102636.00;;;6.96;65.06
32735;BME280;19112;51.076;3.706;2023-01-27T14:59:56;102676.78;;;7.06;64.93
32735;BME280;19112;51.076;3.706;2023-01-27T15:05:56;102588.25;;;6.64;65.51
32735;BME280;19112;51.076;3.706;2023-01-27T15:08:38;102640.09;;;6.93;65.13
32735;BME280;19112;51.076;3.706;2023-01-27T15:17:30;102690.41;;;7.02;66.29
32735;BME280;19112;51.076;3.706;2023-01-27T15:20:20;102690.03;;;6.97;66.82
32735;BME280;19112;51.076;3.706;2023-01-27T15:25:56;102679.38;;;6.94;66.87
32735;BME280;19112;51.076;3.706;2023-01-27T15:28:28;102564.09;;;6.33;66.85
32735;BME280;19112;51.076;3.706;2023-01-27T15:36:57;102670.72;;;6.83;66.49
32735;BME280;19112;51.076;3.706;2023-01-27T15:39:23;102583.69;;;6.27;66.72
32735;BME280;19112;51.076;3.706;2023-01-27T15:44:33;102652.44;;;6.50;67.07
32735;BME280;19112;51.076;3.706;2023-01-27T15:49:37;102524.34;;;5.59;66.88